Time;durP1;ratioP1;P1;durP2;ratioP2;P2;SDS_P1;SDS_P2;PMS_P1;PMS_P2;Temp;Humidity;BMP_temperature;BMP_pressure;BME280_temperature;BME280_humidity;BME280_pressure;Samples;Min_cycle;Max_cycle;Signal;HPM_P1;HPM_P2
2022/04/27 00:00:17;;;;;;;8.00;5.00;;;;;;;6.72;76.43;100945.59;5046101;28;20033;-77
2022/04/27 00:02:42;;;;;;;7.22;5.18;;;;;;;6.78;76.69;100937.81;5055642;28;20550;-77
2022/04/27 00:05:09;;;;;;;7.03;4.75;;;;;;;6.88;76.88;100948.44;5028736;28;20486;-77
2022/04/27 00:07:34;;;;;;;7.25;4.93;;;;;;;6.90;76.64;100947.63;5041496;28;20083;-77
2022/04/27 00:09:59;;;;;;;8.93;5.43;;;;;;;6.94;76.81;100952.06;5027280;28;20064;-77
2022/04/27 00:12:25;;;;;;;6.07;4.28;;;;;;;6.99;76.60;100945.13;5040250;28;20037;-77
2022/04/27 00:14:51;;;;;;;6.60;4.90;;;;;;;7.03;76.51;100949.56;5027114;28;20048;-77
2022/04/27 00:17:17;;;;;;;8.43;5.20;;;;;;;7.08;76.36;100946.16;5043076;28;20567;-77
2022/04/27 00:19:42;;;;;;;8.77;5.63;;;;;;;7.09;76.37;100954.03;5046670;28;20068;-77
2022/04/27 00:22:07;;;;;;;6.80;5.13;;;;;;;7.08;76.15;100954.03;5042816;28;20033;-77
2022/04/27 00:24:33;;;;;;;7.68;4.93;;;;;;;7.08;75.98;100956.66;5027967;28;20471;-77
2022/04/27 00:26:58;;;;;;;6.72;4.70;;;;;;;7.06;76.13;100953.09;5045364;28;20573;-78
2022/04/27 00:29:24;;;;;;;8.02;5.72;;;;;;;7.06;76.56;100950.47;5026300;28;20037;-77
2022/04/27 00:31:49;;;;;;;6.45;4.45;;;;;;;7.05;76.26;100961.81;5025025;28;20412;-78
2022/04/27 00:34:14;;;;;;;7.53;5.28;;;;;;;7.01;76.47;100959.16;5037448;28;20082;-77
2022/04/27 00:36:40;;;;;;;8.95;5.45;;;;;;;6.96;77.55;100952.94;5045037;28;20116;-78
2022/04/27 00:39:05;;;;;;;9.20;5.68;;;;;;;6.90;77.05;100955.50;5023740;28;20033;-78
2022/04/27 00:41:31;;;;;;;6.78;4.70;;;;;;;6.78;77.30;100952.66;5043044;28;20057;-78
2022/04/27 00:43:56;;;;;;;6.20;4.13;;;;;;;6.63;77.32;100955.94;5049768;28;20025;-78
2022/04/27 00:46:21;;;;;;;5.43;3.97;;;;;;;6.53;77.36;100962.75;5027514;28;20037;-78
2022/04/27 00:48:47;;;;;;;6.88;4.18;;;;;;;6.44;77.01;100954.72;5046561;28;20044;-78
2022/04/27 00:51:22;;;;;;;6.55;4.93;;;;;;;6.28;76.85;100964.06;5048844;28;20065;-78
2022/04/27 00:53:52;;;;;;;6.35;4.35;;;;;;;6.17;77.49;100968.22;5046879;28;20038;-78
2022/04/27 00:56:20;;;;;;;6.13;4.25;;;;;;;5.91;80.97;100965.06;5027371;28;20033;-78
2022/04/27 00:58:48;;;;;;;6.22;3.85;;;;;;;5.82;81.05;100975.38;5045746;28;20029;-78
2022/04/27 01:01:14;;;;;;;7.95;5.18;;;;;;;5.87;81.45;100981.59;5047978;28;20037;-78
2022/04/27 01:03:40;;;;;;;7.25;5.07;;;;;;;5.93;81.70;100990.47;5026826;28;20064;-78
2022/04/27 01:06:06;;;;;;;6.65;4.78;;;;;;;5.93;82.22;100982.63;5029671;28;20036;-78
2022/04/27 01:08:32;;;;;;;6.95;4.90;;;;;;;6.02;81.41;100979.28;5045851;28;20419;-78
2022/04/27 01:10:59;;;;;;;8.55;5.20;;;;;;;6.17;81.12;100983.06;5028052;28;20036;-78
2022/04/27 01:13:27;;;;;;;10.73;5.68;;;;;;;6.26;80.25;100988.47;5047401;28;20312;-78
2022/04/27 01:15:56;;;;;;;7.65;4.95;;;;;;;6.29;80.29;100991.19;5029954;28;20112;-78
2022/04/27 01:18:21;;;;;;;6.97;4.20;;;;;;;6.29;79.59;100999.03;5037363;28;20564;-78
2022/04/27 01:20:47;;;;;;;7.65;5.28;;;;;;;6.26;79.84;100993.72;5040517;28;20037;-77
2022/04/27 01:23:16;;;;;;;6.75;4.95;;;;;;;6.36;81.17;101000.91;5030025;28;20052;-77
2022/04/27 01:25:50;;;;;;;9.02;5.85;;;;;;;6.47;80.84;100993.22;5026401;28;20453;-77
2022/04/27 01:28:17;;;;;;;7.93;5.50;;;;;;;6.51;80.17;101001.19;5044902;28;20047;-77
2022/04/27 01:30:44;;;;;;;8.20;5.85;;;;;;;6.54;79.91;101001.22;5041962;28;20029;-77
2022/04/27 01:33:10;;;;;;;7.78;5.45;;;;;;;6.60;79.22;101000.44;5043780;28;20017;-77
2022/04/27 01:35:36;;;;;;;8.07;5.07;;;;;;;6.59;78.78;101004.81;5038305;28;20030;-77
2022/04/27 01:38:03;;;;;;;9.55;5.60;;;;;;;6.64;78.71;101007.53;5039223;28;20063;-77
2022/04/27 01:40:29;;;;;;;8.93;4.93;;;;;;;6.67;78.60;101012.81;5023253;28;20523;-77
2022/04/27 01:42:55;;;;;;;8.80;5.47;;;;;;;6.69;78.62;101010.25;5034023;28;20514;-77
2022/04/27 01:45:20;;;;;;;9.10;5.15;;;;;;;6.73;78.41;101006.78;5020556;28;20080;-78
2022/04/27 01:47:46;;;;;;;7.28;4.25;;;;;;;6.70;78.11;101012.00;5024311;28;20056;-77
2022/04/27 01:50:11;;;;;;;7.40;4.75;;;;;;;6.64;78.78;101004.03;5025406;28;20033;-77
2022/04/27 01:55:21;;;;;;;7.38;5.20;;;;;;;6.74;78.63;101006.84;5041355;28;20033;-77
2022/04/27 01:57:48;;;;;;;7.60;4.75;;;;;;;6.81;78.58;100999.94;5042597;28;20029;-77
2022/04/27 02:00:14;;;;;;;7.03;4.57;;;;;;;6.90;78.48;101004.47;5042864;28;20044;-77
2022/04/27 02:02:41;;;;;;;6.35;4.40;;;;;;;6.92;78.33;101003.63;5023109;28;20029;-77
2022/04/27 02:05:08;;;;;;;7.10;4.75;;;;;;;6.91;78.56;101007.09;5026279;28;20045;-77
2022/04/27 02:07:33;;;;;;;6.75;4.43;;;;;;;7.01;78.44;101003.78;5038203;28;20236;-77
2022/04/27 02:09:58;;;;;;;7.40;4.65;;;;;;;7.09;78.04;101000.38;5026129;28;20493;-78
2022/04/27 02:12:24;;;;;;;6.38;4.13;;;;;;;7.14;77.81;101003.97;5042429;28;20404;-78
2022/04/27 02:15:06;;;;;;;6.47;4.85;;;;;;;7.01;78.55;101001.16;5044851;28;20036;-78
2022/04/27 02:17:32;;;;;;;7.10;5.55;;;;;;;6.89;80.17;101014.09;5028633;28;20067;-78
2022/04/27 02:19:57;;;;;;;8.63;6.28;;;;;;;6.98;79.75;101011.59;5043263;28;20034;-78
2022/04/27 02:22:23;;;;;;;6.32;4.45;;;;;;;7.04;79.42;101008.19;5047243;28;20025;-78
2022/04/27 02:24:48;;;;;;;6.88;4.85;;;;;;;7.05;79.92;101006.44;5027405;28;20037;-78
2022/04/27 02:27:14;;;;;;;6.50;4.63;;;;;;;7.07;80.01;101010.84;5029386;28;20454;-77
2022/04/27 02:29:40;;;;;;;7.30;5.60;;;;;;;6.99;80.55;101015.97;5044557;28;20107;-78
2022/04/27 02:32:15;;;;;;;7.05;5.65;;;;;;;7.07;80.15;101018.72;5027020;28;20056;-77
2022/04/27 02:34:42;;;;;;;6.20;4.13;;;;;;;7.11;79.83;101014.44;5047212;28;20033;-78
2022/04/27 02:37:07;;;;;;;6.50;4.82;;;;;;;7.15;79.22;101024.09;5042970;28;20104;-78
2022/04/27 02:39:37;;;;;;;7.45;4.63;;;;;;;7.16;79.06;101023.25;5052884;28;20055;-78
2022/04/27 02:42:03;;;;;;;6.85;4.75;;;;;;;6.98;78.87;101034.34;5051779;28;20025;-78
2022/04/27 02:44:29;;;;;;;8.50;5.30;;;;;;;6.83;79.86;101031.47;5028738;28;20087;-77
2022/04/27 02:46:54;;;;;;;8.25;4.88;;;;;;;6.95;79.99;101032.53;5047379;28;20434;-77
2022/04/27 02:52:06;;;;;;;7.00;5.05;;;;;;;7.12;79.29;101038.06;5048351;28;20086;-78
2022/04/27 02:54:55;;;;;;;6.65;4.55;;;;;;;7.18;79.13;101032.03;5028989;28;20045;-77
2022/04/27 02:57:21;;;;;;;8.27;5.68;;;;;;;7.25;78.27;101045.25;5030705;28;20044;-78
2022/04/27 02:59:47;;;;;;;9.07;5.38;;;;;;;7.30;78.23;101039.22;5042926;28;20037;-78
2022/04/27 03:02:14;;;;;;;7.22;4.82;;;;;;;7.33;78.26;101039.25;5046796;28;20468;-77
2022/04/27 03:04:40;;;;;;;8.43;5.97;;;;;;;7.38;77.95;101030.59;5028753;28;20069;-78
2022/04/27 03:07:06;;;;;;;8.10;5.82;;;;;;;7.52;77.84;101028.19;5045656;28;20034;-77
2022/04/27 03:09:37;;;;;;;9.50;6.60;;;;;;;7.63;77.12;101026.56;5046112;28;20068;-78
2022/04/27 03:12:03;;;;;;;10.20;6.22;;;;;;;7.67;77.25;101033.63;5046524;28;20033;-77
2022/04/27 03:14:34;;;;;;;10.80;6.45;;;;;;;7.63;77.53;101033.59;5033041;28;20443;-77
2022/04/27 03:17:00;;;;;;;8.00;5.25;;;;;;;7.68;77.70;101034.53;5027509;28;20092;-77
2022/04/27 03:19:25;;;;;;;8.98;6.10;;;;;;;7.64;78.04;101033.59;5030963;28;20097;-78
2022/04/27 03:21:51;;;;;;;7.95;6.15;;;;;;;7.71;78.20;101036.31;5042897;28;20396;-78
2022/04/27 03:24:19;;;;;;;8.93;5.97;;;;;;;7.78;78.06;101036.41;5047179;28;20033;-78
2022/04/27 03:26:47;;;;;;;7.78;5.80;;;;;;;7.79;77.70;101043.44;5030037;28;20500;-78
2022/04/27 03:29:13;;;;;;;7.97;5.18;;;;;;;7.83;77.17;101040.00;5050653;28;20450;-78
2022/04/27 03:31:39;;;;;;;7.07;5.32;;;;;;;7.84;76.74;101040.88;5026900;28;20055;-77
2022/04/27 03:34:04;;;;;;;8.18;5.72;;;;;;;7.80;77.02;101042.56;5047244;28;20116;-78
2022/04/27 03:36:33;;;;;;;9.48;5.90;;;;;;;7.84;77.84;101046.13;5033489;28;20029;-77
2022/04/27 03:38:59;;;;;;;7.85;5.65;;;;;;;7.82;76.98;101051.34;5020955;28;20036;-78
2022/04/27 03:41:26;;;;;;;8.05;5.35;;;;;;;7.83;76.73;101049.59;5030146;28;20049;-78
2022/04/27 03:43:51;;;;;;;8.07;5.72;;;;;;;7.83;77.05;101050.50;5030350;28;20060;-77
2022/04/27 03:46:19;;;;;;;6.95;5.32;;;;;;;7.83;77.17;101055.75;5031597;28;20032;-78
2022/04/27 03:48:46;;;;;;;7.53;5.53;;;;;;;7.85;77.26;101061.91;5047768;28;20052;-78
2022/04/27 03:51:13;;;;;;;8.80;6.78;;;;;;;7.95;76.76;101062.03;5043786;28;20040;-78
2022/04/27 03:53:40;;;;;;;12.80;6.75;;;;;;;7.90;77.09;101062.84;5035082;28;20086;-78
2022/04/27 03:56:08;;;;;;;7.18;5.13;;;;;;;7.84;78.01;101061.91;5034317;28;20028;-78
2022/04/27 03:58:35;;;;;;;6.88;5.00;;;;;;;7.86;77.69;101074.19;5027002;28;20033;-78
2022/04/27 04:01:00;;;;;;;8.30;5.93;;;;;;;7.90;77.70;101072.47;5038631;28;20028;-79
2022/04/27 04:03:26;;;;;;;9.38;5.18;;;;;;;7.93;78.06;101079.53;5053711;28;20042;-78
2022/04/27 04:05:53;;;;;;;9.50;6.30;;;;;;;8.01;77.50;101076.13;5038272;28;20492;-79
2022/04/27 04:08:19;;;;;;;9.38;6.20;;;;;;;8.06;77.02;101091.97;5040230;28;20055;-80
2022/04/27 04:10:46;;;;;;;9.32;6.85;;;;;;;8.01;77.30;101091.88;5053091;28;20036;-79
2022/04/27 04:13:13;;;;;;;11.05;7.28;;;;;;;7.92;77.34;101097.03;5060046;28;20075;-79
2022/04/27 04:15:56;;;;;;;12.02;7.88;;;;;;;7.91;77.95;101103.13;5039594;28;20040;-78
2022/04/27 04:18:49;;;;;;;10.30;7.22;;;;;;;7.92;76.98;101109.31;5037027;28;20038;-79
2022/04/27 04:21:20;;;;;;;9.95;6.45;;;;;;;7.86;77.05;101105.72;5045745;28;20067;-79
2022/04/27 04:24:00;;;;;;;9.55;6.47;;;;;;;7.81;76.89;101110.03;5049293;28;20033;-79
2022/04/27 04:29:12;;;;;;;17.52;11.05;;;;;;;7.74;76.78;101113.44;5059372;28;20499;-79
2022/04/27 04:31:38;;;;;;;11.88;8.10;;;;;;;7.76;76.58;101116.09;5039451;28;20048;-79
2022/04/27 04:34:26;;;;;;;9.15;6.18;;;;;;;7.75;77.34;101123.06;5055838;28;20037;-79
2022/04/27 04:36:53;;;;;;;11.15;7.10;;;;;;;7.69;77.51;101125.63;5043836;28;20032;-79
2022/04/27 04:39:19;;;;;;;9.13;6.78;;;;;;;7.66;77.59;101120.31;5046453;28;20033;-79
2022/04/27 04:41:46;;;;;;;7.85;5.72;;;;;;;7.59;78.91;101132.47;5031822;28;20044;-79
2022/04/27 04:44:12;;;;;;;8.38;5.20;;;;;;;7.69;78.72;101136.13;5053356;28;20462;-79
2022/04/27 04:47:08;;;;;;;7.78;4.95;;;;;;;7.84;78.38;101138.09;5037147;28;20033;-79
2022/04/27 04:49:52;;;;;;;7.20;5.03;;;;;;;7.92;78.33;101138.22;5039269;28;20060;-79
2022/04/27 04:52:36;;;;;;;8.20;6.43;;;;;;;8.01;78.52;101139.22;5059142;28;20399;-79
2022/04/27 04:55:32;;;;;;;8.45;5.32;;;;;;;8.07;78.37;101147.19;5040098;28;20033;-79
2022/04/27 04:58:13;;;;;;;8.80;5.68;;;;;;;8.17;77.45;101161.34;5043043;28;20140;-79
2022/04/27 05:00:51;;;;;;;9.15;5.88;;;;;;;7.99;78.86;101166.34;5056943;28;20041;-79
2022/04/27 05:03:24;;;;;;;28.35;18.98;;;;;;;7.93;79.66;101174.13;5044889;28;20044;-79
2022/04/27 05:06:08;;;;;;;14.63;10.32;;;;;;;7.97;79.38;101175.97;5055125;28;20095;-79
2022/04/27 05:08:45;;;;;;;13.40;9.75;;;;;;;8.18;79.41;101171.00;5055850;28;20029;-79
2022/04/27 05:11:19;;;;;;;12.52;10.07;;;;;;;8.43;77.85;101174.00;5037646;28;20452;-79
2022/04/27 05:14:01;;;;;;;17.80;10.70;;;;;;;8.60;77.18;101172.47;5102461;22;20059;-80
2022/04/27 05:16:49;;;;;;;11.05;9.35;;;;;;;8.79;76.51;101184.09;5083582;28;20032;-80
2022/04/27 05:19:37;;;;;;;10.63;8.18;;;;;;;8.95;75.92;101186.00;5081414;28;20444;-79
2022/04/27 05:22:18;;;;;;;10.23;7.95;;;;;;;9.16;75.46;101190.63;5075732;28;20105;-80
2022/04/27 05:24:56;;;;;;;10.90;8.35;;;;;;;9.32;74.18;101186.38;5077382;28;20037;-79
2022/04/27 05:27:47;;;;;;;9.30;6.53;;;;;;;9.46;73.57;101191.81;5063314;28;20068;-79
2022/04/27 05:33:35;;;;;;;9.85;6.65;;;;;;;9.64;71.98;101199.88;5073237;28;20115;-81
2022/04/27 05:36:29;;;;;;;10.77;6.43;;;;;;;9.65;71.61;101214.81;5066227;28;20131;-79
2022/04/27 05:39:13;;;;;;;10.75;6.60;;;;;;;9.69;71.14;101213.06;5061864;28;20473;-80
2022/04/27 05:42:06;;;;;;;8.55;6.30;;;;;;;9.75;70.59;101210.50;5041798;28;20045;-79
2022/04/27 05:44:50;;;;;;;9.43;6.65;;;;;;;9.91;70.63;101214.13;5060157;28;20051;-81
2022/04/27 05:47:25;;;;;;;10.02;7.43;;;;;;;10.08;70.01;101209.84;5064275;28;20028;-81
2022/04/27 05:50:12;;;;;;;10.20;6.70;;;;;;;10.30;69.96;101215.31;5071256;28;20036;-81
2022/04/27 05:53:16;;;;;;;9.48;6.68;;;;;;;10.55;69.60;101215.44;5000844;28;20046;-82
2022/04/27 05:56:02;;;;;;;8.93;6.20;;;;;;;10.70;69.33;101231.34;4987053;28;20562;-82
2022/04/27 05:58:47;;;;;;;13.32;7.82;;;;;;;10.80;69.41;101232.28;5044984;28;20056;-80
2022/04/27 06:01:35;;;;;;;9.60;6.38;;;;;;;10.75;68.45;101237.53;5063920;28;20043;-79
2022/04/27 06:04:07;;;;;;;;;;;;;;;10.72;66.53;101237.53;5067228;28;20044;-80
2022/04/27 06:06:38;;;;;;;21.55;11.68;;;;;;;10.75;67.13;101240.16;5060811;28;20462;-81
2022/04/27 06:09:06;;;;;;;14.25;10.20;;;;;;;10.90;66.90;101248.16;5058277;28;20061;-81
2022/04/27 06:11:55;;;;;;;10.20;7.57;;;;;;;11.05;65.16;101242.03;5055568;28;20036;-80
2022/04/27 06:14:43;;;;;;;12.25;8.63;;;;;;;11.02;64.81;101241.16;5055185;28;20448;-79
2022/04/27 06:17:31;;;;;;;9.30;6.97;;;;;;;11.01;65.04;101240.28;5060967;28;20499;-80
2022/04/27 06:19:57;;;;;;;11.73;8.93;;;;;;;11.17;64.83;101251.78;5070955;28;20047;-80
2022/04/27 06:22:22;;;;;;;9.57;6.20;;;;;;;11.31;64.33;101254.44;5062530;28;20388;-80
2022/04/27 06:24:48;;;;;;;8.40;5.95;;;;;;;11.35;63.74;101264.16;5062200;28;20080;-80
2022/04/27 06:27:32;;;;;;;7.85;6.00;;;;;;;11.39;63.88;101257.97;5060642;28;20105;-79
2022/04/27 06:29:58;;;;;;;10.40;8.02;;;;;;;11.60;63.28;101257.13;5069305;28;20036;-80
2022/04/27 06:32:24;;;;;;;9.43;5.93;;;;;;;11.76;62.44;101258.94;5061775;28;20028;-80
2022/04/27 06:34:52;;;;;;;8.45;6.32;;;;;;;11.93;62.19;101266.88;5061940;28;20036;-78
2022/04/27 06:37:18;;;;;;;9.25;5.90;;;;;;;12.01;60.51;101265.13;5056841;28;20426;-79
2022/04/27 06:39:45;;;;;;;8.23;6.13;;;;;;;12.16;60.80;101258.94;5062150;28;20406;-80
2022/04/27 06:42:10;;;;;;;8.95;5.85;;;;;;;12.30;59.25;101260.69;5061363;28;20113;-80
2022/04/27 06:44:36;;;;;;;9.52;6.20;;;;;;;12.30;58.56;101261.56;5063545;28;20154;-79
2022/04/27 06:47:37;;;;;;;11.45;6.40;;;;;;;12.45;59.55;101260.66;5041839;28;20040;-79
2022/04/27 06:50:21;;;;;;;8.98;5.93;;;;;;;12.58;58.71;101266.81;5059742;28;20182;-80
2022/04/27 06:53:05;;;;;;;11.55;6.70;;;;;;;12.75;57.68;101258.81;5067938;28;20407;-79
2022/04/27 06:56:02;;;;;;;10.45;6.20;;;;;;;12.91;57.92;101264.03;5070137;28;20037;-79
2022/04/27 06:58:44;;;;;;;8.17;6.47;;;;;;;13.15;57.90;101270.09;5055232;28;20199;-81
2022/04/27 07:01:32;;;;;;;8.10;5.75;;;;;;;13.36;57.29;101279.75;5062911;28;20072;-78
2022/04/27 07:04:06;;;;;;;8.38;6.15;;;;;;;13.27;55.36;101274.50;5062656;28;20086;-82
2022/04/27 07:06:32;;;;;;;7.03;5.50;;;;;;;13.17;55.61;101284.25;5076724;28;20043;-80
2022/04/27 07:08:57;;;;;;;9.95;5.93;;;;;;;13.15;55.97;101280.72;5059197;28;20111;-81
2022/04/27 07:11:22;;;;;;;7.63;5.60;;;;;;;13.27;56.07;101291.28;5060613;28;20071;-80
2022/04/27 07:13:48;;;;;;;7.38;5.93;;;;;;;13.28;55.59;101300.13;5061846;28;20033;-80
2022/04/27 07:16:13;;;;;;;9.27;7.07;;;;;;;13.38;56.44;101296.53;5062085;28;20052;-80
2022/04/27 07:18:38;;;;;;;9.20;6.18;;;;;;;13.50;55.36;101295.59;5060895;28;20041;-79
2022/04/27 07:21:07;;;;;;;8.52;5.75;;;;;;;13.42;55.41;101302.72;5073954;28;20048;-80
2022/04/27 07:23:33;;;;;;;7.32;5.72;;;;;;;13.32;55.50;101304.53;5058938;28;20449;-79
2022/04/27 07:25:58;;;;;;;6.57;5.03;;;;;;;13.41;55.61;101308.91;5063298;28;20177;-80
2022/04/27 07:28:23;;;;;;;8.07;5.47;;;;;;;13.50;55.00;101301.78;5057829;28;20033;-80
2022/04/27 07:30:49;;;;;;;8.93;6.32;;;;;;;13.57;55.13;101306.16;5067186;28;20495;-79
2022/04/27 07:33:14;;;;;;;10.20;5.97;;;;;;;13.74;55.19;101307.81;5068912;28;20028;-79
2022/04/27 07:35:39;;;;;;;9.98;5.75;;;;;;;13.89;54.69;101307.72;5069196;28;20045;-81
2022/04/27 07:38:05;;;;;;;11.73;6.97;;;;;;;14.06;54.70;101312.00;5066300;28;20115;-79
2022/04/27 07:40:31;;;;;;;8.52;6.47;;;;;;;14.07;54.45;101311.09;5073354;28;20040;-81
2022/04/27 07:42:58;;;;;;;8.00;6.32;;;;;;;14.06;53.98;101312.00;5067387;28;20028;-81
2022/04/27 07:45:23;;;;;;;8.00;6.28;;;;;;;14.15;54.27;101315.47;5067804;28;20036;-78
2022/04/27 07:47:48;;;;;;;10.95;6.38;;;;;;;14.40;53.90;101321.44;5081340;28;20414;-80
2022/04/27 07:50:15;;;;;;;9.02;6.55;;;;;;;14.65;53.31;101315.94;5062017;28;20120;-79
2022/04/27 07:52:42;;;;;;;9.25;5.97;;;;;;;14.99;52.23;101326.19;5062969;28;20044;-79
2022/04/27 07:55:08;;;;;;;7.95;5.90;;;;;;;15.33;51.44;101329.31;5066091;28;20033;-81
2022/04/27 07:57:34;;;;;;;8.40;6.65;;;;;;;15.78;50.72;101326.94;5068048;28;20086;-81
2022/04/27 08:00:01;;;;;;;9.02;6.63;;;;;;;16.11;49.73;101327.28;5069785;28;20032;-79
2022/04/27 08:02:26;;;;;;;8.65;5.32;;;;;;;16.29;48.17;101334.09;5062658;28;20039;-79
2022/04/27 08:04:52;;;;;;;6.85;5.15;;;;;;;16.33;48.33;101333.16;5066622;28;20033;-79
2022/04/27 08:07:17;;;;;;;7.43;4.95;;;;;;;16.36;47.02;101330.44;5062905;28;20096;-82
2022/04/27 08:09:42;;;;;;;8.20;5.15;;;;;;;16.35;46.68;101342.00;5067558;28;20059;-81
2022/04/27 08:12:08;;;;;;;8.82;5.35;;;;;;;16.41;45.44;101334.78;5066200;28;20087;-78
2022/04/27 08:14:34;;;;;;;7.78;4.80;;;;;;;16.55;46.09;101333.63;5064846;28;20066;-80
2022/04/27 08:17:01;;;;;;;7.22;5.35;;;;;;;16.73;45.30;101338.63;5065522;28;20045;-78
2022/04/27 08:19:26;;;;;;;10.63;8.80;;;;;;;16.97;45.51;101334.66;5062242;28;20076;-79
2022/04/27 08:21:54;;;;;;;7.57;5.95;;;;;;;17.17;44.74;101331.59;5065024;28;20072;-78
2022/04/27 08:24:24;;;;;;;10.55;7.13;;;;;;;17.25;43.90;101329.63;5066895;28;20044;-81
2022/04/27 08:26:50;;;;;;;15.48;11.90;;;;;;;17.38;44.39;101338.25;5066093;28;20033;-80
2022/04/27 08:29:15;;;;;;;12.00;9.30;;;;;;;17.52;43.70;101340.63;5067465;28;20032;-80
2022/04/27 08:31:40;;;;;;;10.52;7.07;;;;;;;17.66;42.98;101341.22;5064284;28;20447;-80
2022/04/27 08:34:07;;;;;;;7.20;4.63;;;;;;;17.57;42.22;101343.19;5065161;28;20032;-81
2022/04/27 08:36:33;;;;;;;6.63;3.97;;;;;;;17.36;42.35;101337.41;5064129;28;20033;-80
2022/04/27 08:38:59;;;;;;;6.90;5.10;;;;;;;17.31;42.19;101347.28;5063029;28;20052;-81
2022/04/27 08:41:26;;;;;;;7.63;4.20;;;;;;;16.79;41.01;101348.34;5064969;28;20062;-79
2022/04/27 08:43:51;;;;;;;7.07;4.25;;;;;;;16.64;41.22;101344.16;5065073;28;20089;-79
2022/04/27 08:46:17;;;;;;;7.55;3.80;;;;;;;16.71;42.15;101348.44;5066621;28;20437;-80
2022/04/27 08:48:47;;;;;;;9.68;4.85;;;;;;;16.77;42.24;101350.13;5068203;28;20032;-81
2022/04/27 08:51:13;;;;;;;5.97;3.35;;;;;;;16.95;41.70;101351.59;5067835;28;20116;-80
2022/04/27 08:53:38;;;;;;;21.73;10.82;;;;;;;17.14;41.89;101352.13;5068448;28;20614;-80
2022/04/27 08:56:04;;;;;;;14.95;10.95;;;;;;;17.28;40.88;101352.69;5064447;28;20036;-80
2022/04/27 08:58:29;;;;;;;16.27;9.43;;;;;;;17.30;41.00;101353.56;5067701;28;20091;-80
2022/04/27 09:00:55;;;;;;;9.30;5.88;;;;;;;17.31;40.20;101347.28;5069358;28;20449;-82
2022/04/27 09:03:38;;;;;;;5.65;3.55;;;;;;;17.39;38.75;101353.34;5066471;28;20097;-81
2022/04/27 09:06:12;;;;;;;6.35;3.60;;;;;;;17.28;39.29;101358.03;5070266;28;20485;-79
2022/04/27 09:08:48;;;;;;;10.48;4.22;;;;;;;17.24;39.24;101362.56;5070622;28;20041;-80
2022/04/27 09:11:15;;;;;;;11.23;7.78;;;;;;;17.08;39.98;101356.66;5069616;28;20339;-78
2022/04/27 09:13:48;;;;;;;6.40;4.72;;;;;;;17.26;39.61;101362.50;5072271;28;20036;-80
2022/04/27 09:16:14;;;;;;;8.38;4.85;;;;;;;17.44;39.85;101364.78;5072048;28;20040;-81
2022/04/27 09:21:58;;;;;;;6.43;3.80;;;;;;;17.46;37.60;101352.31;5064452;28;20041;-81
2022/04/27 09:24:25;;;;;;;5.63;3.78;;;;;;;17.51;38.04;101354.88;5045444;28;20040;-80
2022/04/27 09:27:20;;;;;;;4.93;3.20;;;;;;;17.46;39.09;101354.97;5064181;28;20067;-79
2022/04/27 09:29:59;;;;;;;5.93;3.50;;;;;;;17.08;40.17;101362.00;5060579;28;20137;-81
2022/04/27 09:32:25;;;;;;;5.32;3.60;;;;;;;17.02;40.58;101359.44;5066080;28;20043;-81
2022/04/27 09:34:52;;;;;;;7.03;3.85;;;;;;;17.02;40.85;101356.75;5076475;28;20051;-81
2022/04/27 09:37:19;;;;;;;9.05;3.72;;;;;;;16.66;40.86;101366.28;5062897;28;20028;-82
2022/04/27 09:39:58;;;;;;;8.45;4.45;;;;;;;16.41;41.04;101366.75;5065948;28;20032;-81
2022/04/27 09:42:30;;;;;;;5.05;3.33;;;;;;;16.27;41.39;101358.13;5065198;28;20036;-81
2022/04/27 09:44:55;;;;;;;6.10;3.50;;;;;;;16.41;41.10;101361.41;5065372;28;20491;-82
2022/04/27 09:47:20;;;;;;;6.97;3.65;;;;;;;16.36;41.79;101360.59;5070584;28;20049;-80
2022/04/27 09:49:46;;;;;;;7.88;4.25;;;;;;;16.16;41.54;101358.25;5070246;28;20095;-81
2022/04/27 09:52:14;;;;;;;6.60;3.88;;;;;;;16.27;41.81;101359.88;5047824;28;20039;-81
2022/04/27 09:54:42;;;;;;;5.47;3.45;;;;;;;16.47;41.41;101356.88;5071235;28;20032;-81
2022/04/27 09:57:12;;;;;;;6.50;3.63;;;;;;;16.74;42.22;101350.16;5069727;28;20090;-82
2022/04/27 09:59:37;;;;;;;7.05;3.67;;;;;;;16.83;40.59;101356.25;5062434;28;20052;-80
2022/04/27 10:02:08;;;;;;;6.15;3.72;;;;;;;16.85;39.07;101356.22;5069548;28;20028;-80
2022/04/27 10:04:36;;;;;;;5.65;3.75;;;;;;;16.77;39.03;101355.47;5068911;28;20047;-80
2022/04/27 10:07:04;;;;;;;8.02;5.63;;;;;;;16.94;39.35;101350.72;5064828;28;20032;-79
2022/04/27 10:09:30;;;;;;;9.18;6.88;;;;;;;17.31;39.58;101352.63;5059558;28;20043;-80
2022/04/27 10:11:58;;;;;;;6.65;3.72;;;;;;;17.70;38.14;101350.00;5064067;28;20041;-80
2022/04/27 10:14:25;;;;;;;7.07;3.75;;;;;;;17.73;38.55;101347.25;5062427;28;20036;-80
2022/04/27 10:16:51;;;;;;;6.13;3.95;;;;;;;17.76;36.88;101355.19;5069170;28;20042;-80
2022/04/27 10:19:17;;;;;;;5.13;3.17;;;;;;;17.74;36.94;101347.25;5063709;28;20458;-80
2022/04/27 10:22:05;;;;;;;6.47;4.28;;;;;;;17.59;35.87;101352.06;5068264;28;20039;-80
2022/04/27 10:24:43;;;;;;;7.32;5.57;;;;;;;18.13;35.92;101344.59;5065993;28;20123;-79
2022/04/27 10:27:39;;;;;;;6.05;3.85;;;;;;;18.74;34.89;101339.44;5069603;28;20104;-79
2022/04/27 10:30:12;;;;;;;4.43;3.05;;;;;;;18.95;33.75;101340.69;5066527;28;20086;-80
2022/04/27 10:32:45;;;;;;;8.48;7.18;;;;;;;19.39;34.77;101329.63;5070458;28;20055;-81
2022/04/27 10:35:33;;;;;;;5.90;4.00;;;;;;;19.82;31.83;101333.66;5074002;28;20453;-79
2022/04/27 10:38:05;;;;;;;5.10;2.80;;;;;;;19.77;31.90;101332.94;5059545;28;20028;-80
2022/04/27 10:40:37;;;;;;;4.40;2.80;;;;;;;19.81;32.19;101339.97;5065346;28;20134;-80
2022/04/27 10:43:09;;;;;;;5.15;3.20;;;;;;;19.92;29.40;101337.81;5062074;28;20047;-80
2022/04/27 10:45:40;;;;;;;5.72;2.88;;;;;;;19.61;28.92;101332.50;5066452;28;20106;-81
2022/04/27 10:48:07;;;;;;;13.90;7.15;;;;;;;19.99;30.83;101331.34;5063271;28;20033;-81
2022/04/27 10:50:35;;;;;;;6.32;3.13;;;;;;;20.39;28.89;101324.63;5073405;28;20552;-81
2022/04/27 10:53:23;;;;;;;7.65;2.80;;;;;;;19.73;28.76;101328.59;5070735;28;20037;-80
2022/04/27 10:55:54;;;;;;;9.43;3.97;;;;;;;19.21;30.62;101329.22;5072697;28;20067;-79
2022/04/27 10:58:22;;;;;;;5.03;2.70;;;;;;;19.05;31.40;101334.16;5065219;28;20051;-83
2022/04/27 11:01:02;;;;;;;6.55;3.03;;;;;;;18.64;32.14;101335.25;5066183;28;20668;-79
2022/04/27 11:03:40;;;;;;;6.53;3.28;;;;;;;18.30;34.63;101330.78;5068057;28;20517;-78
2022/04/27 11:06:09;;;;;;;5.07;3.25;;;;;;;18.06;35.04;101342.97;5066512;28;20040;-77
2022/04/27 11:09:02;;;;;;;7.97;3.05;;;;;;;17.94;33.24;101330.78;5065291;28;20411;-77
2022/04/27 11:11:28;;;;;;;3.85;2.78;;;;;;;18.06;32.10;101332.28;5064765;28;20042;-78
2022/04/27 11:14:04;;;;;;;4.50;2.67;;;;;;;18.87;31.47;101333.78;5109261;22;20041;-75
2022/04/27 11:16:29;;;;;;;4.97;2.13;;;;;;;19.30;31.56;101319.16;5038359;28;20099;-76
2022/04/27 11:18:56;;;;;;;4.25;2.30;;;;;;;19.48;29.66;101327.50;5043331;28;20037;-76
2022/04/27 11:21:30;;;;;;;4.93;2.67;;;;;;;19.47;28.21;101332.94;5042885;28;20411;-75
2022/04/27 11:23:58;;;;;;;3.85;2.20;;;;;;;19.43;29.12;101325.91;5043274;28;20036;-76
2022/04/27 11:26:23;;;;;;;3.83;2.08;;;;;;;19.37;29.22;101331.44;5030503;28;20509;-76
2022/04/27 11:28:52;;;;;;;5.15;2.25;;;;;;;19.15;29.13;101331.19;5045463;28;20037;-76
2022/04/27 11:31:20;;;;;;;6.87;3.17;;;;;;;18.46;32.72;101351.78;5032162;28;20040;-76
2022/04/27 11:33:45;;;;;;;6.05;3.55;;;;;;;17.95;33.42;101345.91;5019222;28;20042;-75
2022/04/27 11:36:22;;;;;;;5.22;3.72;;;;;;;17.71;33.91;101343.75;5044924;28;20143;-75
2022/04/27 11:38:48;;;;;;;6.03;3.17;;;;;;;17.46;34.70;101346.97;5051660;28;20033;-76
2022/04/27 11:41:14;;;;;;;4.65;3.30;;;;;;;17.29;36.09;101351.78;5045645;28;20063;-76
2022/04/27 11:43:40;;;;;;;5.25;3.30;;;;;;;17.21;35.91;101345.72;5042619;28;20047;-76
2022/04/27 11:46:08;;;;;;;4.72;2.88;;;;;;;17.31;34.72;101352.63;5044460;28;20488;-76
2022/04/27 11:48:33;;;;;;;7.53;2.90;;;;;;;17.37;35.09;101356.94;5044018;28;20502;-75
2022/04/27 11:51:00;;;;;;;8.77;2.65;;;;;;;17.44;34.89;101356.78;5042620;28;20045;-75
2022/04/27 11:53:26;;;;;;;3.70;2.38;;;;;;;17.46;35.05;101351.44;5045231;28;20389;-76
2022/04/27 11:55:52;;;;;;;4.93;2.95;;;;;;;17.39;34.79;101355.13;5042117;28;20091;-76